< Cyclone 195806 1958 Season Cyclone 195808 >
Cyclone 195807 (unnamed)
General InformationTrack Information on Google Maps || ResourceGoogle EarthGE AnimationAtom FeedGeoJSON
Detalied Best Track (Time Zone = UTC)
Year Month Day Hour Lat. Long. Pressure (hPa) Wind (kt) Class Image Chart
1958 2 8 01 -8.2 101.0 1005 0 0 -- --
1958 2 8 04 -8.3 100.9 1005 0 0 -- --
1958 2 8 07 -8.4 100.8 1005 0 0 -- --
1958 2 8 10 -8.5 100.7 1005 0 0 -- --
1958 2 8 16 -8.7 100.4 1005 0 0 -- --
1958 2 8 19 -8.8 100.3 1005 0 0 -- --
1958 2 8 22 -8.9 100.1 1005 0 0 -- --
1958 2 9 01 -9.0 100.0 1005 0 0 -- --
1958 2 9 07 -9.3 99.8 1005 0 0 -- --
1958 2 9 10 -9.4 99.7 1005 0 0 -- --
1958 2 9 16 -9.6 99.4 1005 0 0 -- --
1958 2 9 22 -9.8 99.1 1005 0 0 -- --
1958 2 10 01 -9.9 99.0 1005 0 0 -- --
1958 2 10 04 -10.0 98.5 1005 0 0 -- --
1958 2 10 07 -10.2 97.9 1005 0 0 -- --
1958 2 10 10 -10.3 97.3 1005 0 0 -- --
1958 2 10 16 -10.6 96.1 1005 0 0 -- --
1958 2 10 22 -11.0 95.0 1005 0 0 -- --
1958 2 11 01 -11.2 94.5 1005 0 0 -- --
1958 2 11 04 -11.4 94.3 1004 0 0 -- --
1958 2 11 07 -11.6 94.1 1004 0 0 -- --
1958 2 11 10 -11.8 93.9 1004 0 0 -- --
1958 2 11 16 -12.3 93.6 1004 0 0 -- --
1958 2 11 19 -12.6 93.5 1004 0 0 -- --
1958 2 11 22 -12.9 93.4 1004 0 0 -- --
1958 2 12 01 -13.2 93.2 1003 0 0 -- --
1958 2 12 04 -13.5 93.3 1003 0 0 -- --
1958 2 12 07 -13.8 93.4 1002 0 0 -- --
1958 2 12 10 -14.1 93.5 1002 0 0 -- --
1958 2 12 16 -14.4 93.8 1001 0 0 -- --
1958 2 12 22 -15.0 94.1 999 0 0 -- --
1958 2 13 01 -15.3 94.3 998 0 0 -- --
1958 2 13 07 -15.7 93.6 998 0 0 -- --
1958 2 13 10 -15.8 93.2 998 0 0 -- --
1958 2 13 16 -16.0 92.4 998 0 0 -- --
1958 2 13 19 -16.2 92.0 998 0 0 -- --
1958 2 13 22 -16.4 91.6 998 0 0 -- --
1958 2 14 01 -16.6 91.2 998 0 0 -- --
1958 2 14 04 -16.8 90.8 998 0 0 -- --
1958 2 14 07 -16.9 90.4 998 0 0 -- --
1958 2 14 10 -17.1 90.0 998 0 0 -- --
1958 2 14 16 -17.3 89.2 997 0 0 -- --
1958 2 14 19 -17.5 88.8 997 0 0 -- --
1958 2 15 01 -17.9 88.0 997 0 0 -- --
1958 2 15 04 -18.1 87.5 998 0 0 -- --
< Cyclone 195806 1958 Season Cyclone 195808 >

Help